Time;durP1;ratioP1;P1;durP2;ratioP2;P2;SDS_P1;SDS_P2;PMS_P1;PMS_P2;Temp;Humidity;BMP_temperature;BMP_pressure;BME280_temperature;BME280_humidity;BME280_pressure;Samples;Min_cycle;Max_cycle;Signal;HPM_P1;HPM_P2
2023/01/06 00:01:07;;;;;;;;;26.75;26.00;;;;;;;;4952430;28;11592;-75
2023/01/06 00:03:32;;;;;;;;;32.75;29.75;;;;;;;;4951051;28;8953;-74
2023/01/06 00:06:01;;;;;;;;;28.50;25.75;;;;;;;;4952088;28;11681;-74
2023/01/06 00:08:27;;;;;;;;;27.00;27.00;;;;;;;;4952347;28;8809;-74
2023/01/06 00:10:52;;;;;;;;;18.75;17.75;;;;;;;;4950841;28;11584;-75
2023/01/06 00:13:17;;;;;;;;;30.50;23.75;;;;;;;;4951617;28;8887;-74
2023/01/06 00:15:43;;;;;;;;;25.00;22.00;;;;;;;;4952401;28;8801;-74
2023/01/06 00:18:08;;;;;;;;;30.25;26.75;;;;;;;;4952182;28;8816;-74
2023/01/06 00:20:33;;;;;;;;;29.00;22.50;;;;;;;;4952100;28;8840;-75
2023/01/06 00:22:58;;;;;;;;;25.75;24.25;;;;;;;;4952205;28;9562;-75
2023/01/06 00:25:24;;;;;;;;;29.50;21.00;;;;;;;;4951963;28;8812;-75
2023/01/06 00:27:49;;;;;;;;;31.67;26.33;;;;;;;;4951962;28;8905;-75
2023/01/06 00:30:14;;;;;;;;;23.25;21.50;;;;;;;;4952035;28;9512;-75
2023/01/06 00:32:40;;;;;;;;;25.00;23.00;;;;;;;;4951320;28;8934;-75
2023/01/06 00:35:05;;;;;;;;;30.50;27.25;;;;;;;;4951863;28;8801;-75
2023/01/06 00:37:30;;;;;;;;;26.00;22.25;;;;;;;;4951913;28;8817;-75
2023/01/06 00:39:55;;;;;;;;;30.25;26.75;;;;;;;;4951672;28;8813;-75
2023/01/06 00:42:21;;;;;;;;;26.00;22.50;;;;;;;;4951654;28;8817;-76
2023/01/06 00:44:46;;;;;;;;;25.00;23.00;;;;;;;;4951769;28;8895;-74
2023/01/06 00:47:13;;;;;;;;;28.75;26.00;;;;;;;;4951489;28;8876;-74
2023/01/06 00:49:38;;;;;;;;;28.00;23.75;;;;;;;;4951173;28;8832;-74
2023/01/06 00:52:03;;;;;;;;;29.00;26.25;;;;;;;;4933710;28;11565;-75
2023/01/06 00:54:28;;;;;;;;;25.25;23.00;;;;;;;;4951669;28;8805;-75
2023/01/06 00:56:54;;;;;;;;;29.50;24.50;;;;;;;;4934144;28;8817;-75
2023/01/06 00:59:20;;;;;;;;;26.50;25.00;;;;;;;;4951455;28;8817;-75
2023/01/06 01:01:46;;;;;;;;;26.25;23.25;;;;;;;;4950148;28;8963;-75
2023/01/06 01:04:12;;;;;;;;;28.50;26.00;;;;;;;;4950889;28;12318;-74
2023/01/06 01:06:38;;;;;;;;;22.75;22.75;;;;;;;;4950984;28;11536;-75
2023/01/06 01:09:04;;;;;;;;;25.00;20.00;;;;;;;;4951367;28;8785;-75
2023/01/06 01:14:14;;;;;;;;;27.25;21.75;;;;;;;;4951154;28;11498;-74
2023/01/06 01:16:40;;;;;;;;;27.50;26.50;;;;;;;;4951132;28;11694;-74
2023/01/06 01:19:05;;;;;;;;;27.33;25.67;;;;;;;;4949635;28;11556;-74
2023/01/06 01:21:31;;;;;;;;;28.00;23.00;;;;;;;;4951233;28;8853;-75
2023/01/06 01:23:56;;;;;;;;;28.50;25.50;;;;;;;;4950719;28;8813;-73
2023/01/06 01:26:21;;;;;;;;;22.50;22.00;;;;;;;;4965947;28;8835;-76
2023/01/06 01:28:47;;;;;;;;;24.00;22.75;;;;;;;;4951299;29;8825;-75
2023/01/06 01:31:12;;;;;;;;;25.00;22.00;;;;;;;;4951120;29;8831;-75
2023/01/06 01:33:38;;;;;;;;;13.50;13.50;;;;;;;;4951227;29;9488;-75
2023/01/06 01:36:11;;;;;;;;;21.50;21.25;;;;;;;;4950964;29;9171;-75
2023/01/06 01:38:37;;;;;;;;;29.75;21.00;;;;;;;;4950997;29;11548;-75
2023/01/06 01:41:02;;;;;;;;;24.00;22.75;;;;;;;;4965711;28;11562;-75
2023/01/06 01:43:42;;;;;;;;;26.00;22.75;;;;;;;;4950252;29;8839;-75
2023/01/06 01:46:08;;;;;;;;;26.67;24.67;;;;;;;;4965334;28;8832;-74
2023/01/06 01:48:34;;;;;;;;;22.75;21.00;;;;;;;;4951005;29;11530;-74
2023/01/06 01:51:01;;;;;;;;;30.75;24.00;;;;;;;;4950870;29;8819;-74
2023/01/06 01:53:37;;;;;;;;;25.50;21.75;;;;;;;;4950924;28;11751;-74
2023/01/06 01:56:05;;;;;;;;;27.75;26.00;;;;;;;;4950923;29;11500;-74
2023/01/06 01:58:38;;;;;;;;;27.25;22.25;;;;;;;;4965593;28;12367;-74
2023/01/06 02:01:04;;;;;;;;;23.25;23.25;;;;;;;;4950635;28;11531;-74
2023/01/06 02:03:30;;;;;;;;;25.50;24.50;;;;;;;;4950886;28;11545;-75
2023/01/06 02:05:58;;;;;;;;;27.50;21.00;;;;;;;;4954261;28;11549;-74
2023/01/06 02:08:23;;;;;;;;;24.25;24.25;;;;;;;;4954755;28;8789;-74
2023/01/06 02:10:48;;;;;;;;;26.25;25.75;;;;;;;;4954449;28;12402;-74
2023/01/06 02:13:14;;;;;;;;;23.25;22.50;;;;;;;;4954462;28;8863;-74
2023/01/06 02:15:41;;;;;;;;;24.50;24.50;;;;;;;;4954596;28;8809;-74
2023/01/06 02:18:25;;;;;;;;;29.50;26.00;;;;;;;;4954388;28;8979;-74
2023/01/06 02:20:59;;;;;;;;;30.25;27.75;;;;;;;;4954513;28;11545;-75
2023/01/06 02:23:33;;;;;;;;;27.00;25.75;;;;;;;;4968969;28;11584;-73
2023/01/06 02:25:58;;;;;;;;;18.00;17.00;;;;;;;;4954547;28;11553;-73
2023/01/06 02:28:42;;;;;;;;;29.75;27.00;;;;;;;;4953958;28;12271;-74
2023/01/06 02:31:27;;;;;;;;;26.25;23.50;;;;;;;;4954157;28;8793;-74
2023/01/06 02:33:52;;;;;;;;;28.50;24.50;;;;;;;;4953589;28;11525;-74
2023/01/06 02:36:18;;;;;;;;;25.75;25.75;;;;;;;;4953774;28;11611;-74
2023/01/06 02:38:54;;;;;;;;;28.75;20.50;;;;;;;;4968487;28;9570;-74
2023/01/06 02:41:22;;;;;;;;;28.25;26.25;;;;;;;;4954018;28;8904;-74
2023/01/06 02:43:47;;;;;;;;;29.00;24.75;;;;;;;;4968515;28;11556;-74
2023/01/06 02:46:15;;;;;;;;;26.25;25.75;;;;;;;;4953787;28;11523;-74
2023/01/06 02:48:59;;;;;;;;;21.75;17.50;;;;;;;;4968476;28;8840;-74
2023/01/06 02:51:36;;;;;;;;;27.00;26.00;;;;;;;;4953383;28;11527;-74
2023/01/06 07:56:03;;;;;;;;;40.67;34.00;;;;;;;;5104075;27;13425;-74
2023/01/06 07:58:29;;;;;;;;;40.33;34.33;;;;;;;;5107628;28;8798;-75
2023/01/06 08:00:54;;;;;;;;;30.33;24.33;;;;;;;;5107162;28;8791;-72
2023/01/06 08:03:19;;;;;;;;;32.00;27.33;;;;;;;;5045320;27;10497;-71
2023/01/06 08:05:45;;;;;;;;;34.33;30.67;;;;;;;;5074055;28;8926;-70
2023/01/06 08:08:11;;;;;;;;;27.33;27.33;;;;;;;;5055979;28;8886;-73
2023/01/06 08:10:39;;;;;;;;;30.50;28.50;;;;;;;;5046939;28;8819;-72
2023/01/06 08:13:05;;;;;;;;;28.50;28.50;;;;;;;;5055665;28;12342;-70
2023/01/06 08:15:30;;;;;;;;;22.67;21.00;;;;;;;;5066294;28;11590;-71
2023/01/06 08:17:55;;;;;;;;;32.75;26.75;;;;;;;;5066190;28;8785;-72
2023/01/06 08:20:21;;;;;;;;;35.25;31.00;;;;;;;;5064745;28;9049;-72
2023/01/06 08:22:46;;;;;;;;;29.00;26.25;;;;;;;;5063957;28;8837;-73
2023/01/06 08:25:11;;;;;;;;;31.50;28.25;;;;;;;;5063866;28;8817;-73
2023/01/06 08:27:37;;;;;;;;;32.25;26.50;;;;;;;;5063643;28;8797;-72
2023/01/06 08:30:02;;;;;;;;;29.50;27.00;;;;;;;;5064683;28;8796;-71
2023/01/06 08:32:27;;;;;;;;;21.50;16.50;;;;;;;;5066048;28;8805;-72
2023/01/06 08:34:52;;;;;;;;;29.75;27.00;;;;;;;;5065474;28;8809;-71
2023/01/06 08:37:18;;;;;;;;;29.25;25.75;;;;;;;;5064305;28;8971;-72
2023/01/06 08:39:43;;;;;;;;;35.00;29.75;;;;;;;;5065876;28;8785;-70
2023/01/06 08:42:09;;;;;;;;;31.00;27.50;;;;;;;;5065498;28;8785;-70
2023/01/06 08:44:34;;;;;;;;;38.00;27.75;;;;;;;;5065652;28;8827;-73
2023/01/06 08:46:59;;;;;;;;;26.50;26.50;;;;;;;;5064337;28;8824;-71
2023/01/06 08:49:24;;;;;;;;;41.75;34.75;;;;;;;;5065215;28;8829;-71
2023/01/06 08:51:50;;;;;;;;;39.00;32.75;;;;;;;;5062470;28;8924;-72
2023/01/06 08:54:15;;;;;;;;;47.25;38.25;;;;;;;;5063245;28;8849;-72
2023/01/06 08:56:42;;;;;;;;;41.50;37.50;;;;;;;;5065325;28;9551;-70
2023/01/06 08:59:11;;;;;;;;;58.67;46.33;;;;;;;;5063966;28;8880;-71
2023/01/06 09:01:36;;;;;;;;;39.50;36.75;;;;;;;;5064019;28;8816;-71
2023/01/06 09:04:04;;;;;;;;;65.33;52.33;;;;;;;;5063282;28;11730;-71
2023/01/06 09:06:29;;;;;;;;;52.67;44.33;;;;;;;;5056154;28;8789;-70
2023/01/06 09:08:55;;;;;;;;;35.50;32.25;;;;;;;;5048842;28;11560;-71
2023/01/06 09:11:20;;;;;;;;;40.50;34.00;;;;;;;;5042627;28;8803;-70
2023/01/06 09:13:45;;;;;;;;;41.25;37.00;;;;;;;;5061744;28;8822;-69
2023/01/06 09:16:11;;;;;;;;;57.00;48.00;;;;;;;;5071841;28;8883;-68
2023/01/06 09:18:37;;;;;;;;;38.50;37.00;;;;;;;;5066690;28;8910;-68
2023/01/06 09:21:02;;;;;;;;;35.75;32.00;;;;;;;;5051516;28;8797;-69
2023/01/06 09:23:28;;;;;;;;;35.00;29.50;;;;;;;;5050033;28;8793;-70
2023/01/06 09:25:53;;;;;;;;;43.50;38.00;;;;;;;;5051310;28;8801;-70
2023/01/06 09:28:19;;;;;;;;;45.75;38.50;;;;;;;;5045282;28;8811;-70
2023/01/06 09:30:45;;;;;;;;;51.00;44.00;;;;;;;;5038945;28;8824;-70
2023/01/06 09:33:10;;;;;;;;;66.00;51.00;;;;;;;;5039720;28;8805;-72
2023/01/06 09:35:35;;;;;;;;;47.33;41.33;;;;;;;;5051026;28;8809;-71
2023/01/06 09:38:00;;;;;;;;;52.33;44.67;;;;;;;;5049744;28;8843;-69
2023/01/06 09:40:31;;;;;;;;;62.00;45.33;;;;;;;;5044432;28;8794;-70
2023/01/06 09:43:02;;;;;;;;;55.75;41.00;;;;;;;;5047869;28;8848;-69
2023/01/06 09:45:40;;;;;;;;;50.25;41.25;;;;;;;;5046972;28;11676;-68
2023/01/06 09:48:09;;;;;;;;;55.75;40.00;;;;;;;;5043342;28;11569;-69
2023/01/06 09:50:42;;;;;;;;;47.50;39.75;;;;;;;;5031062;28;12340;-71
2023/01/06 09:53:40;;;;;;;;;57.25;42.75;;;;;;;;5045634;28;11628;-71
2023/01/06 09:56:12;;;;;;;;;38.25;34.50;;;;;;;;5008494;28;12469;-72
2023/01/06 09:58:42;;;;;;;;;39.25;39.25;;;;;;;;4992495;28;12442;-74
2023/01/06 10:01:12;;;;;;;;;35.50;34.50;;;;;;;;4992385;28;11579;-74
2023/01/06 10:03:37;;;;;;;;;41.25;41.25;;;;;;;;4974740;28;11713;-73
2023/01/06 10:06:21;;;;;;;;;45.00;40.25;;;;;;;;5001604;28;11648;-68
2023/01/06 10:09:13;;;;;;;;;51.00;43.25;;;;;;;;5006777;28;8816;-71
2023/01/06 10:12:00;;;;;;;;;44.75;40.25;;;;;;;;5003709;28;11540;-70
2023/01/06 10:14:44;;;;;;;;;52.75;45.00;;;;;;;;5007013;28;11673;-70
2023/01/06 10:17:22;;;;;;;;;48.25;43.25;;;;;;;;5006547;28;11554;-70
2023/01/06 10:19:58;;;;;;;;;65.00;50.67;;;;;;;;5007174;28;11550;-71
2023/01/06 10:22:23;;;;;;;;;60.33;48.00;;;;;;;;5008528;28;8907;-71
2023/01/06 10:25:08;;;;;;;;;69.33;53.67;;;;;;;;5008362;28;11560;-70
2023/01/06 10:27:39;;;;;;;;;63.00;52.33;;;;;;;;5008306;28;8818;-71
2023/01/06 10:30:13;;;;;;;;;62.00;51.33;;;;;;;;5007798;28;11699;-70
2023/01/06 10:32:38;;;;;;;;;59.33;47.67;;;;;;;;5045719;28;12287;-71
2023/01/06 10:35:10;;;;;;;;;60.33;47.00;;;;;;;;5050298;28;11560;-71
2023/01/06 10:37:36;;;;;;;;;60.67;47.00;;;;;;;;5050458;28;8781;-71
2023/01/06 10:40:11;;;;;;;;;47.50;43.00;;;;;;;;5050142;28;11555;-71
2023/01/06 10:42:56;;;;;;;;;53.75;42.25;;;;;;;;5050157;28;11663;-70
2023/01/06 10:45:32;;;;;;;;;47.25;42.00;;;;;;;;5048675;28;11736;-70
2023/01/06 10:47:58;;;;;;;;;49.25;43.50;;;;;;;;5049696;28;11662;-71
2023/01/06 10:50:23;;;;;;;;;47.25;40.25;;;;;;;;5049992;28;12385;-71
2023/01/06 10:52:49;;;;;;;;;45.50;40.75;;;;;;;;5050310;28;8781;-71
2023/01/06 10:55:20;;;;;;;;;53.00;42.75;;;;;;;;5049834;28;8825;-70
2023/01/06 10:57:46;;;;;;;;;39.75;36.75;;;;;;;;5048834;28;8809;-70
2023/01/06 11:00:17;;;;;;;;;41.50;37.00;;;;;;;;5048697;28;11606;-71
2023/01/06 11:02:46;;;;;;;;;42.75;39.00;;;;;;;;5048492;28;11689;-71
2023/01/06 11:05:13;;;;;;;;;42.25;37.50;;;;;;;;5049373;28;11699;-71
2023/01/06 11:07:44;;;;;;;;;46.00;38.00;;;;;;;;5049597;28;11548;-71
2023/01/06 11:10:25;;;;;;;;;45.00;39.00;;;;;;;;5049815;28;11541;-71
2023/01/06 11:12:50;;;;;;;;;47.25;40.00;;;;;;;;5049604;28;11546;-72
2023/01/06 11:15:21;;;;;;;;;43.50;39.00;;;;;;;;5049371;28;11560;-70
2023/01/06 11:17:47;;;;;;;;;39.00;35.75;;;;;;;;5049469;28;8895;-70
2023/01/06 11:20:12;;;;;;;;;37.50;33.75;;;;;;;;5049552;28;12382;-70
2023/01/06 11:22:39;;;;;;;;;42.75;36.25;;;;;;;;5049541;28;8765;-70
2023/01/06 11:25:16;;;;;;;;;43.50;37.25;;;;;;;;5049038;28;9849;-70
2023/01/06 11:27:42;;;;;;;;;36.25;35.00;;;;;;;;5049258;28;10882;-70
2023/01/06 11:30:19;;;;;;;;;42.25;35.00;;;;;;;;5048912;28;10452;-70
2023/01/06 11:32:45;;;;;;;;;36.00;32.25;;;;;;;;5048058;28;8825;-70
2023/01/06 11:35:18;;;;;;;;;34.00;32.50;;;;;;;;5049275;28;10093;-70
2023/01/06 11:37:44;;;;;;;;;39.00;34.00;;;;;;;;5049515;28;8773;-70
2023/01/06 11:40:28;;;;;;;;;30.25;30.25;;;;;;;;5046044;28;13466;-70
2023/01/06 11:42:57;;;;;;;;;33.00;30.00;;;;;;;;5047469;28;9893;-69
2023/01/06 11:45:34;;;;;;;;;31.33;29.67;;;;;;;;5049066;28;9443;-69
2023/01/06 11:48:01;;;;;;;;;30.75;30.00;;;;;;;;5049389;28;9459;-70
2023/01/06 11:50:26;;;;;;;;;33.25;31.25;;;;;;;;5049315;28;9548;-69
2023/01/06 11:53:03;;;;;;;;;37.25;31.25;;;;;;;;5045648;28;13502;-70
2023/01/06 11:55:29;;;;;;;;;27.00;24.50;;;;;;;;5049129;28;8797;-70
2023/01/06 11:58:00;;;;;;;;;27.25;25.00;;;;;;;;5046306;28;14657;-70
2023/01/06 12:00:32;;;;;;;;;30.40;27.60;;;;;;;;5044775;28;14166;-70
2023/01/06 12:03:06;;;;;;;;;25.75;21.25;;;;;;;;5049330;28;8835;-70
2023/01/06 12:05:41;;;;;;;;;23.75;21.50;;;;;;;;5045143;28;14079;-71
2023/01/06 12:08:32;;;;;;;;;25.75;19.50;;;;;;;;5049084;28;10112;-71
2023/01/06 12:11:08;;;;;;;;;23.25;18.75;;;;;;;;5047632;28;10186;-70
2023/01/06 12:13:33;;;;;;;;;20.25;17.25;;;;;;;;5048920;28;10347;-70
2023/01/06 12:16:03;;;;;;;;;21.00;19.50;;;;;;;;5048730;28;10358;-71
2023/01/06 12:18:30;;;;;;;;;22.75;19.25;;;;;;;;5047085;28;8838;-71
2023/01/06 12:20:57;;;;;;;;;13.00;11.75;;;;;;;;5048912;28;11674;-70
2023/01/06 12:23:26;;;;;;;;;12.25;12.00;;;;;;;;5048757;28;10382;-70
2023/01/06 12:25:54;;;;;;;;;12.00;10.25;;;;;;;;5047056;28;10595;-71
2023/01/06 12:28:28;;;;;;;;;11.00;11.00;;;;;;;;5048712;28;10231;-72
2023/01/06 12:30:53;;;;;;;;;11.00;7.75;;;;;;;;5048823;28;10348;-70
2023/01/06 12:33:24;;;;;;;;;11.25;8.00;;;;;;;;5048709;28;10307;-70
2023/01/06 12:35:52;;;;;;;;;10.75;8.00;;;;;;;;5047186;28;8939;-70
2023/01/06 12:38:21;;;;;;;;;7.50;7.50;;;;;;;;5048370;28;10422;-70
2023/01/06 12:40:52;;;;;;;;;1.75;1.75;;;;;;;;5049032;28;10557;-71
2023/01/06 12:43:19;;;;;;;;;2.25;2.25;;;;;;;;5052598;28;10279;-70
2023/01/06 12:46:02;;;;;;;;;4.00;2.00;;;;;;;;5052316;28;10349;-70
2023/01/06 12:48:37;;;;;;;;;6.00;5.00;;;;;;;;5052322;28;10630;-70
2023/01/06 12:51:20;;;;;;;;;10.75;8.00;;;;;;;;5052364;28;10940;-70
2023/01/06 12:53:57;;;;;;;;;7.25;7.25;;;;;;;;5052081;28;10846;-71
2023/01/06 12:56:34;;;;;;;;;6.00;4.50;;;;;;;;5051029;28;10962;-71
2023/01/06 12:59:08;;;;;;;;;5.00;5.00;;;;;;;;5052391;28;10937;-70
2023/01/06 13:01:52;;;;;;;;;9.50;6.25;;;;;;;;5052331;28;10898;-70
2023/01/06 13:04:23;;;;;;;;;9.50;6.00;;;;;;;;5052110;28;11005;-70
2023/01/06 13:06:57;;;;;;;;;6.50;6.50;;;;;;;;5052016;28;11321;-71
2023/01/06 13:09:37;;;;;;;;;7.00;6.50;;;;;;;;5052146;28;12002;-71
2023/01/06 13:12:06;;;;;;;;;14.00;9.00;;;;;;;;5051964;28;11017;-71
2023/01/06 13:14:34;;;;;;;;;9.75;8.00;;;;;;;;5051465;28;11429;-71
2023/01/06 13:17:08;;;;;;;;;10.25;10.25;;;;;;;;5051696;28;11101;-70
2023/01/06 13:19:40;;;;;;;;;11.25;9.50;;;;;;;;5052010;28;12150;-71
2023/01/06 13:22:09;;;;;;;;;8.00;8.00;;;;;;;;5050538;28;11462;-71
2023/01/06 13:24:54;;;;;;;;;10.00;9.75;;;;;;;;5051617;28;11481;-71
2023/01/06 13:27:28;;;;;;;;;13.50;11.00;;;;;;;;5051681;28;11419;-70
2023/01/06 13:30:09;;;;;;;;;14.00;12.50;;;;;;;;5050572;28;11455;-71
2023/01/06 13:32:41;;;;;;;;;9.50;7.00;;;;;;;;5051489;28;11578;-70
2023/01/06 13:35:12;;;;;;;;;8.75;7.50;;;;;;;;5051378;28;11413;-71
2023/01/06 13:37:50;;;;;;;;;7.50;6.00;;;;;;;;5051473;28;11392;-71
2023/01/06 13:40:25;;;;;;;;;7.50;6.00;;;;;;;;5051550;28;11391;-71
2023/01/06 13:43:00;;;;;;;;;6.00;6.00;;;;;;;;5051359;28;11398;-70
2023/01/06 13:45:34;;;;;;;;;7.00;7.00;;;;;;;;5051301;28;11451;-71
2023/01/06 13:48:05;;;;;;;;;5.25;5.25;;;;;;;;5051414;28;11375;-70
2023/01/06 13:50:31;;;;;;;;;10.00;6.75;;;;;;;;5051175;28;11483;-70
2023/01/06 13:52:57;;;;;;;;;6.00;5.75;;;;;;;;5050913;28;11401;-71
2023/01/06 13:55:37;;;;;;;;;6.50;5.25;;;;;;;;5051186;28;8839;-71
2023/01/06 13:58:21;;;;;;;;;6.00;6.00;;;;;;;;5051565;28;8847;-70
2023/01/06 14:01:03;;;;;;;;;5.50;5.25;;;;;;;;5051482;28;11398;-71
2023/01/06 14:03:29;;;;;;;;;3.00;3.00;;;;;;;;5051285;28;11433;-71
2023/01/06 14:05:55;;;;;;;;;5.50;5.00;;;;;;;;5050823;28;11437;-71
2023/01/06 14:08:22;;;;;;;;;6.25;3.00;;;;;;;;5050525;28;8829;-73
2023/01/06 14:10:53;;;;;;;;;3.00;2.75;;;;;;;;5050894;28;11403;-72
2023/01/06 14:13:21;;;;;;;;;5.25;4.00;;;;;;;;5051383;28;11392;-70
2023/01/06 14:16:01;;;;;;;;;5.50;5.50;;;;;;;;5048293;28;11473;-78
2023/01/06 14:18:36;;;;;;;;;5.00;3.00;;;;;;;;5030935;28;11452;-74
2023/01/06 14:21:14;;;;;;;;;6.25;5.00;;;;;;;;5027606;28;12233;-75
2023/01/06 14:23:50;;;;;;;;;7.00;6.00;;;;;;;;5027762;28;11450;-69
2023/01/06 14:26:15;;;;;;;;;3.00;3.00;;;;;;;;5030307;28;11408;-70
2023/01/06 14:28:40;;;;;;;;;6.00;5.00;;;;;;;;5047560;28;11479;-70
2023/01/06 14:31:24;;;;;;;;;3.50;3.50;;;;;;;;5050150;28;8789;-70
2023/01/06 14:33:55;;;;;;;;;3.00;3.00;;;;;;;;5050122;28;9531;-71
2023/01/06 14:36:21;;;;;;;;;2.75;2.75;;;;;;;;5049308;28;11379;-72
2023/01/06 14:38:47;;;;;;;;;8.75;8.00;;;;;;;;5048894;28;12142;-71
2023/01/06 14:41:28;;;;;;;;;7.00;3.00;;;;;;;;5049899;28;11427;-71
2023/01/06 14:44:01;;;;;;;;;8.50;6.00;;;;;;;;5048102;28;11394;-70
2023/01/06 14:46:47;;;;;;;;;5.50;5.50;;;;;;;;5048610;28;11541;-73
2023/01/06 14:49:35;;;;;;;;;5.50;5.00;;;;;;;;5013721;28;11434;-72
2023/01/06 14:52:04;;;;;;;;;2.00;2.00;;;;;;;;5030353;28;12163;-73
2023/01/06 14:54:35;;;;;;;;;3.25;3.25;;;;;;;;5050092;28;11555;-70
2023/01/06 14:57:02;;;;;;;;;2.00;2.00;;;;;;;;5050395;28;11439;-69
2023/01/06 14:59:28;;;;;;;;;7.00;3.00;;;;;;;;5101655;28;11501;-68
2023/01/06 15:01:58;;;;;;;;;2.75;2.50;;;;;;;;5094765;28;11441;-71
2023/01/06 15:04:29;;;;;;;;;4.25;4.00;;;;;;;;5045425;28;8979;-70
2023/01/06 15:06:55;;;;;;;;;5.00;5.00;;;;;;;;5046868;28;11437;-69
2023/01/06 15:09:20;;;;;;;;;4.50;2.50;;;;;;;;5047746;28;11414;-70
2023/01/06 15:11:46;;;;;;;;;3.50;3.00;;;;;;;;5047715;28;11508;-70
2023/01/06 15:14:24;;;;;;;;;5.75;5.00;;;;;;;;5047922;28;8982;-69
2023/01/06 15:16:49;;;;;;;;;3.25;3.25;;;;;;;;5047036;28;10098;-70
2023/01/06 15:19:15;;;;;;;;;4.75;3.00;;;;;;;;5053175;28;11390;-70
2023/01/06 15:21:41;;;;;;;;;2.00;2.00;;;;;;;;5069364;28;8795;-70
2023/01/06 15:24:24;;;;;;;;;3.25;3.25;;;;;;;;5069259;28;8867;-70
2023/01/06 15:26:50;;;;;;;;;5.00;3.50;;;;;;;;5064707;28;11635;-69
2023/01/06 15:29:17;;;;;;;;;5.00;5.00;;;;;;;;5048801;28;11419;-70
2023/01/06 15:31:44;;;;;;;;;7.00;6.25;;;;;;;;5048577;28;11539;-70
2023/01/06 15:34:32;;;;;;;;;8.75;6.25;;;;;;;;5049133;28;11514;-70
2023/01/06 15:36:59;;;;;;;;;6.75;5.50;;;;;;;;5044741;28;11460;-70
2023/01/06 15:39:26;;;;;;;;;6.75;6.00;;;;;;;;5048817;28;11489;-70
2023/01/06 15:41:51;;;;;;;;;4.25;4.00;;;;;;;;5048914;28;11495;-72
2023/01/06 15:44:23;;;;;;;;;5.00;5.00;;;;;;;;5047049;28;12405;-72
2023/01/06 15:46:49;;;;;;;;;10.00;6.00;;;;;;;;5045357;28;8809;-69
2023/01/06 15:49:26;;;;;;;;;7.50;5.50;;;;;;;;5043323;28;11435;-69
2023/01/06 15:51:56;;;;;;;;;5.75;5.75;;;;;;;;5046970;28;11415;-70
2023/01/06 15:54:21;;;;;;;;;6.75;5.75;;;;;;;;5046866;28;11457;-72
2023/01/06 15:56:47;;;;;;;;;8.50;8.50;;;;;;;;5047983;28;11424;-71
2023/01/06 15:59:13;;;;;;;;;8.75;7.75;;;;;;;;5045924;28;9707;-71
2023/01/06 16:01:45;;;;;;;;;9.75;7.25;;;;;;;;5045129;28;8841;-71
2023/01/06 16:04:13;;;;;;;;;11.00;9.50;;;;;;;;5045001;28;8832;-71
2023/01/06 16:06:39;;;;;;;;;9.00;8.00;;;;;;;;5046500;28;11550;-72
2023/01/06 16:09:29;;;;;;;;;13.00;9.25;;;;;;;;5046160;28;11414;-71
2023/01/06 16:11:57;;;;;;;;;11.50;8.75;;;;;;;;5044241;28;12253;-71
2023/01/06 16:14:30;;;;;;;;;9.00;9.00;;;;;;;;5047402;28;11635;-72
2023/01/06 16:17:06;;;;;;;;;18.00;16.75;;;;;;;;5048592;28;11571;-72
2023/01/06 16:19:32;;;;;;;;;10.50;10.00;;;;;;;;5049853;28;11545;-72
2023/01/06 16:21:59;;;;;;;;;9.75;9.75;;;;;;;;5051781;28;12362;-72
2023/01/06 16:24:26;;;;;;;;;11.75;10.00;;;;;;;;5050790;28;8959;-71
2023/01/06 16:26:55;;;;;;;;;9.75;9.75;;;;;;;;5051661;28;11494;-71
2023/01/06 16:29:23;;;;;;;;;10.00;8.75;;;;;;;;5049250;28;11523;-71
2023/01/06 16:31:48;;;;;;;;;13.75;9.00;;;;;;;;5052139;28;11468;-71
2023/01/06 16:34:20;;;;;;;;;11.50;11.50;;;;;;;;5050300;28;11498;-71
2023/01/06 16:36:46;;;;;;;;;14.50;10.00;;;;;;;;5052115;28;9582;-72
2023/01/06 16:39:11;;;;;;;;;16.75;13.00;;;;;;;;5050572;28;11513;-71
2023/01/06 16:41:36;;;;;;;;;13.00;12.00;;;;;;;;5052049;28;8816;-73
2023/01/06 16:44:02;;;;;;;;;17.50;13.75;;;;;;;;5050915;28;8821;-71
2023/01/06 16:46:27;;;;;;;;;12.50;11.25;;;;;;;;5052451;28;8839;-73
2023/01/06 16:48:53;;;;;;;;;12.25;10.50;;;;;;;;5052356;28;8789;-72
2023/01/06 16:51:19;;;;;;;;;15.50;11.00;;;;;;;;5052339;28;8789;-71
2023/01/06 16:53:44;;;;;;;;;14.75;13.00;;;;;;;;5062943;28;11466;-71
2023/01/06 16:56:13;;;;;;;;;15.00;15.00;;;;;;;;5070188;28;8818;-72
2023/01/06 16:58:39;;;;;;;;;34.50;31.00;;;;;;;;5070799;28;8798;-72
2023/01/06 17:01:08;;;;;;;;;16.50;14.00;;;;;;;;5070446;28;11621;-72
2023/01/06 17:03:35;;;;;;;;;13.25;12.25;;;;;;;;5051969;28;8800;-74
2023/01/06 17:06:01;;;;;;;;;18.75;15.75;;;;;;;;5050465;28;11661;-72
2023/01/06 17:08:30;;;;;;;;;18.00;12.50;;;;;;;;5050494;28;11769;-72
2023/01/06 17:10:56;;;;;;;;;14.75;10.75;;;;;;;;5052066;28;8919;-72
2023/01/06 17:13:38;;;;;;;;;17.50;13.25;;;;;;;;5050763;28;12371;-72
2023/01/06 17:16:09;;;;;;;;;14.50;12.25;;;;;;;;5051886;28;8829;-76
2023/01/06 17:18:42;;;;;;;;;17.75;16.00;;;;;;;;5051641;28;11661;-72
2023/01/06 17:21:11;;;;;;;;;16.00;13.75;;;;;;;;5051114;28;11624;-74
2023/01/06 17:23:40;;;;;;;;;19.00;15.75;;;;;;;;5050348;28;11569;-75
2023/01/06 17:26:10;;;;;;;;;20.25;19.25;;;;;;;;5051482;28;11660;-75
2023/01/06 17:28:36;;;;;;;;;21.25;21.00;;;;;;;;5050888;28;11544;-74
2023/01/06 17:31:05;;;;;;;;;24.50;19.50;;;;;;;;5051827;28;11499;-72
2023/01/06 17:33:30;;;;;;;;;28.75;27.50;;;;;;;;5051557;28;11640;-74
2023/01/06 17:35:56;;;;;;;;;28.00;25.25;;;;;;;;5051442;28;11538;-72
2023/01/06 17:38:22;;;;;;;;;21.00;17.75;;;;;;;;5051956;28;8817;-71
2023/01/06 17:40:48;;;;;;;;;20.75;18.00;;;;;;;;5051894;28;8793;-71
2023/01/06 17:43:19;;;;;;;;;24.25;22.00;;;;;;;;5074632;28;11565;-71
2023/01/06 17:45:44;;;;;;;;;26.75;22.50;;;;;;;;5050135;28;11553;-71
2023/01/06 17:48:10;;;;;;;;;25.00;20.75;;;;;;;;5051235;28;12281;-72
2023/01/06 17:50:44;;;;;;;;;21.75;21.00;;;;;;;;5051941;28;8781;-72
2023/01/06 17:55:59;;;;;;;;;21.75;20.75;;;;;;;;5050912;28;11502;-76
2023/01/06 17:58:29;;;;;;;;;26.00;21.25;;;;;;;;5050684;28;11620;-72
2023/01/06 18:00:55;;;;;;;;;24.75;19.50;;;;;;;;5050066;28;11639;-72
2023/01/06 18:03:22;;;;;;;;;6.25;5.50;;;;;;;;5048888;28;11535;-72
2023/01/06 18:05:57;;;;;;;;;28.50;21.25;;;;;;;;5051374;28;8820;-71
2023/01/06 18:08:23;;;;;;;;;20.00;18.00;;;;;;;;5038122;28;11639;-71
2023/01/06 18:11:03;;;;;;;;;23.50;21.25;;;;;;;;5051451;28;11523;-72
2023/01/06 18:13:33;;;;;;;;;23.75;20.00;;;;;;;;5050294;28;8923;-71
2023/01/06 18:15:59;;;;;;;;;25.25;21.50;;;;;;;;5051090;28;11513;-71
2023/01/06 18:18:38;;;;;;;;;21.00;21.00;;;;;;;;5051097;28;11540;-72
2023/01/06 18:21:24;;;;;;;;;24.75;20.50;;;;;;;;5046333;28;12312;-71
2023/01/06 18:23:53;;;;;;;;;23.00;21.25;;;;;;;;5041851;28;11576;-72
2023/01/06 18:26:27;;;;;;;;;18.25;18.00;;;;;;;;5050615;28;12426;-70
2023/01/06 18:28:57;;;;;;;;;21.25;20.25;;;;;;;;5050618;28;11528;-71
2023/01/06 18:31:23;;;;;;;;;25.50;21.00;;;;;;;;5049905;28;11650;-70
2023/01/06 18:33:49;;;;;;;;;23.75;20.00;;;;;;;;5049814;28;11539;-72
2023/01/06 18:36:19;;;;;;;;;27.25;21.50;;;;;;;;5050517;28;8938;-72
2023/01/06 18:38:47;;;;;;;;;22.50;22.50;;;;;;;;5050049;28;11563;-71
2023/01/06 18:41:12;;;;;;;;;21.00;20.75;;;;;;;;5050708;28;11626;-71
2023/01/06 18:43:38;;;;;;;;;24.50;22.00;;;;;;;;5049146;28;11566;-70
2023/01/06 18:46:10;;;;;;;;;20.00;19.75;;;;;;;;5050322;28;8837;-71
2023/01/06 18:48:35;;;;;;;;;22.00;21.25;;;;;;;;5030906;28;8820;-71
2023/01/06 18:51:02;;;;;;;;;23.75;21.00;;;;;;;;5032114;28;11549;-73
2023/01/06 18:53:29;;;;;;;;;19.50;16.50;;;;;;;;5056316;28;8840;-72
2023/01/06 18:56:02;;;;;;;;;28.25;26.50;;;;;;;;5068520;28;11594;-73
2023/01/06 18:58:53;;;;;;;;;25.50;23.25;;;;;;;;5046113;28;11557;-73
2023/01/06 19:01:25;;;;;;;;;21.00;18.00;;;;;;;;5050497;28;11524;-73
2023/01/06 19:03:59;;;;;;;;;25.75;25.00;;;;;;;;5049148;28;11519;-72
2023/01/06 19:06:36;;;;;;;;;32.00;25.25;;;;;;;;5049581;28;11539;-73
2023/01/06 19:09:24;;;;;;;;;24.50;21.75;;;;;;;;5050284;28;11534;-74
2023/01/06 19:11:54;;;;;;;;;22.75;17.50;;;;;;;;5050265;28;11558;-74
2023/01/06 19:14:19;;;;;;;;;26.00;25.00;;;;;;;;5048430;28;11692;-74
2023/01/06 19:16:46;;;;;;;;;25.75;22.25;;;;;;;;5049746;28;11630;-76
2023/01/06 19:19:15;;;;;;;;;28.25;23.75;;;;;;;;5050089;28;8781;-75
2023/01/06 19:21:43;;;;;;;;;25.25;23.25;;;;;;;;5049614;28;11549;-73
2023/01/06 19:24:27;;;;;;;;;26.75;22.00;;;;;;;;5049920;28;11522;-73
2023/01/06 19:26:53;;;;;;;;;30.25;24.00;;;;;;;;5050106;28;12407;-73
2023/01/06 19:29:37;;;;;;;;;29.00;24.75;;;;;;;;5049844;28;11514;-73
2023/01/06 19:32:11;;;;;;;;;24.50;22.25;;;;;;;;5049890;28;11516;-73
2023/01/06 19:34:36;;;;;;;;;21.75;19.00;;;;;;;;5048385;28;11533;-74
2023/01/06 19:37:02;;;;;;;;;27.75;23.25;;;;;;;;5049648;28;11558;-74
2023/01/06 19:39:52;;;;;;;;;29.25;24.50;;;;;;;;5048691;28;8863;-75
2023/01/06 19:42:25;;;;;;;;;31.25;28.50;;;;;;;;5048243;28;8797;-73
2023/01/06 19:44:53;;;;;;;;;32.00;26.50;;;;;;;;5048667;28;11566;-74
2023/01/06 19:47:18;;;;;;;;;29.75;25.50;;;;;;;;5049864;28;11515;-75
2023/01/06 19:49:48;;;;;;;;;32.75;24.25;;;;;;;;5048326;28;11515;-75
2023/01/06 19:52:31;;;;;;;;;29.00;25.75;;;;;;;;5049790;28;8831;-76